Orbital elements of COSMOS 2251 DEB
| Launched | 15 June 1993 |
| Flight ended | – |
| Launch site | Plesetsk Missile and Space Complex, Russia |
| Owner | Commonwealth of Independent States (former USSR) |
| NORAD ID | 37295 |
| Date fetched |
Epoch osculation |
Inc. [°] |
Ecc. | RA asc node [hr] |
Arg Peri. [°] |
Mean anom [°] |
Mean motion [rev/day] |
Abs. mag |
| Date fetched |
Epoch osculation |
Inc. [°] |
Ecc. | RA asc node [hr] |
Arg Peri. [°] |
Mean anom [°] |
Mean motion [rev/day] |
Abs. mag |
| 2026 May 03 17:57 | 2026 Apr 29 02:55:33 | 74.0075 | 0.00456 | 1.1051 | 162.3651 | 197.9115 | 14.66132 | – |
| 2026 May 02 17:57 | 2026 Apr 29 02:55:33 | 74.0075 | 0.00456 | 1.1051 | 162.3651 | 197.9115 | 14.66132 | – |
| 2026 May 01 17:56 | 2026 Apr 29 02:55:33 | 74.0075 | 0.00456 | 1.1051 | 162.3651 | 197.9115 | 14.66132 | – |
| 2026 Apr 30 17:56 | 2026 Apr 29 02:55:33 | 74.0075 | 0.00456 | 1.1051 | 162.3651 | 197.9115 | 14.66132 | – |
| 2026 Apr 29 17:57 | 2026 Apr 23 04:26:59 | 74.0071 | 0.00459 | 1.8690 | 175.4287 | 197.9115 | 14.66132 | – |
| 2026 Apr 28 17:56 | 2026 Apr 23 04:26:59 | 74.0071 | 0.00459 | 1.8690 | 175.4287 | 197.9115 | 14.66132 | – |
| 2026 Apr 27 17:58 | 2026 Apr 23 04:26:59 | 74.0071 | 0.00459 | 1.8690 | 175.4287 | 197.9115 | 14.66132 | – |
| 2026 Apr 26 17:58 | 2026 Apr 23 04:26:59 | 74.0071 | 0.00459 | 1.8690 | 175.4287 | 197.9115 | 14.66132 | – |
| 2026 Apr 25 17:58 | 2026 Apr 23 04:26:59 | 74.0071 | 0.00459 | 1.8690 | 175.4287 | 197.9115 | 14.66132 | – |
| 2026 Apr 24 17:59 | 2026 Apr 23 04:26:59 | 74.0071 | 0.00459 | 1.8690 | 175.4287 | 197.9115 | 14.66132 | – |
| 2026 Apr 23 17:57 | 2026 Apr 17 19:04:21 | 74.0067 | 0.00461 | 2.5627 | 187.3268 | 197.9115 | 14.66132 | – |
| 2026 Apr 22 17:57 | 2026 Apr 17 19:04:21 | 74.0067 | 0.00461 | 2.5627 | 187.3268 | 197.9115 | 14.66132 | – |
| 2026 Apr 21 17:57 | 2026 Apr 17 19:04:21 | 74.0067 | 0.00461 | 2.5627 | 187.3268 | 197.9115 | 14.66132 | – |
| 2026 Apr 20 17:57 | 2026 Apr 17 19:04:21 | 74.0067 | 0.00461 | 2.5627 | 187.3268 | 197.9115 | 14.66132 | – |
| 2026 Apr 19 17:58 | 2026 Apr 17 19:04:21 | 74.0067 | 0.00461 | 2.5627 | 187.3268 | 197.9115 | 14.66132 | – |
| 2026 Apr 18 17:56 | 2026 Apr 10 20:01:36 | 74.0069 | 0.00465 | 3.4584 | 202.5899 | 197.9115 | 14.66132 | – |
| 2026 Apr 16 17:57 | 2026 Apr 10 20:01:36 | 74.0069 | 0.00465 | 3.4584 | 202.5899 | 197.9115 | 14.66132 | – |
| 2026 Apr 14 17:57 | 2026 Apr 10 20:01:36 | 74.0069 | 0.00465 | 3.4584 | 202.5899 | 197.9115 | 14.66132 | – |
| 2026 Apr 13 17:57 | 2026 Apr 10 20:01:36 | 74.0069 | 0.00465 | 3.4584 | 202.5899 | 197.9115 | 14.66132 | – |
| 2026 Apr 12 17:57 | 2026 Apr 08 07:25:52 | 74.0055 | 0.00458 | 3.7834 | 207.5122 | 197.9115 | 14.66132 | – |
| 2026 Apr 11 17:57 | 2026 Apr 08 07:25:52 | 74.0055 | 0.00458 | 3.7834 | 207.5122 | 197.9115 | 14.66132 | – |
| 2026 Apr 10 17:58 | 2026 Apr 08 07:25:52 | 74.0055 | 0.00458 | 3.7834 | 207.5122 | 197.9115 | 14.66132 | – |
| 2026 Apr 09 18:01 | 2026 Apr 08 07:25:52 | 74.0055 | 0.00458 | 3.7834 | 207.5122 | 197.9115 | 14.66132 | – |
| 2026 Apr 08 17:57 | 2026 Apr 08 07:25:52 | 74.0055 | 0.00458 | 3.7834 | 207.5122 | 197.9115 | 14.66132 | – |
| 2026 Apr 07 17:57 | 2026 Mar 27 07:10:56 | 74.0038 | 0.00471 | 5.3290 | 234.0838 | 197.9115 | 14.66132 | – |
| 2026 Apr 06 17:57 | 2026 Mar 27 07:10:56 | 74.0038 | 0.00471 | 5.3290 | 234.0838 | 197.9115 | 14.66132 | – |